Weather observations for the past three days for
Moriarty Municipal Airport
Imperial (Metric)
Date Time (mdt) Wind (mph) Vis. (mi.) Weather Sky Cond. Temperature (ºF) Relative Humidity Wind Chill (°F) Heat Index (°F) Pressure Precipitation (in)
Air Dwpt 6 hour altimeter (in) sea level (mb) 1 hr 3 hr 6 hr
Max. Min.
08 06:55 Calm 10.00 Fair CLR 38.7 16.3 40% 30.1 0.0
08 06:35 N 3 10.00 Fair CLR 35.1 15.3 44% 30.08 0.0
08 06:15 SE 5 10.00 Fair CLR 34 14.5 45% 30 30.08 0.0
08 05:55 NE 6 10.00 Fair CLR 29.8 13.6 43.9 29.8 51% 25 30.08 0.0
08 05:35 Calm 10.00 Fair CLR 34 12.4 41% 30.07 0.0
08 05:15 Calm 10.00 Fair CLR 34.3 11.1 38% 30.07 0.0
08 04:55 SE 3 10.00 Fair CLR 35.2 11.3 37% 30.07 0.0
08 04:35 Calm 10.00 Fair CLR 38.1 9.3 30% 30.07 0.0
08 04:15 SW 5 10.00 Fair CLR 37.6 10.2 32% 35 30.07 0.0
08 03:55 S 3 10.00 Fair CLR 37.2 10.2 33% 30.06 0.0
08 03:35 Calm 10.00 Fair CLR 33.3 12.2 42% 30.07 0.0
08 03:15 Calm 10.00 Fair CLR 33.3 12 41% 30.07 0.0
08 02:55 Calm 10.00 Fair CLR 32.7 13.1 44% 30.07 0.0
08 02:35 S 3 10.00 Fair CLR 37.2 9.7 32% 30.07 0.0
08 02:15 SW 5 10.00 Fair CLR 35.8 9.5 33% 32 30.08 0.0
08 01:55 S 3 10.00 Fair CLR 37.6 7.7 29% 30.08 0.0
08 01:35 S 3 10.00 Fair CLR 41 8.4 26% 30.08 0.0
08 01:15 S 5 10.00 Fair CLR 40.3 7.7 26% 38 30.09 0.0
08 00:55 S 6 10.00 Fair CLR 41.5 8.6 26% 38 30.09 0.0
08 00:35 W 5 10.00 Fair CLR 41.4 9.9 27% 39 30.08 0.0
08 00:15 Calm 10.00 Fair CLR 40.5 9.9 28% 30.08 0.0
07 23:55 Calm 10.00 Fair CLR 40.1 7.9 72.9 36.5 26% 30.08 0.0
07 23:35 NW 3 10.00 Fair CLR 43 8.1 24% 30.08 0.0
07 23:15 Calm 10.00 Fair CLR 44.6 7.7 22% 30.09 0.0
07 22:55 Calm 10.00 Fair CLR 42.8 9 25% 30.09 0.0
07 22:35 Calm 10.00 Fair CLR 48.9 6.8 18% 30.08 0.0
07 22:15 Calm 10.00 Fair CLR 46.9 6.6 19% 30.08 0.0
07 21:55 Calm 10.00 Fair CLR 45.5 7.5 21% 30.08 0.0
07 21:35 W 8 10.00 Fair CLR 52.2 6.1 15% 30.08 0.0
07 21:15 W 8 10.00 Fair CLR 52.3 7.3 16% 30.07 0.0
07 20:55 W 3 10.00 Fair CLR 51.1 5.5 15% 30.06 0.0
07 20:35 W 5 10.00 Fair CLR 51.6 5.4 15% 30.05 0.0
07 20:15 W 6 10.00 Fair CLR 59.2 5.5 11% 30.04 0.0
07 19:55 W 8 10.00 Fair CLR 61.9 5.4 10% 30.04 0.0
07 19:35 W 8 10.00 Fair CLR 65.8 3.9 8% 30.04 0.0
07 19:15 SW 10 10.00 Fair CLR 68.7 1.4 7% 30.04 0.0
07 18:55 SW 10 10.00 Fair CLR 70.5 0.7 6% 30.03 0.0
07 18:35 W 12 10.00 Fair CLR 72 2.5 6% 30.03 0.0
07 18:15 W 10 G 16 10.00 Fair CLR 72.3 2.3 6% 30.02 0.0
07 17:55 SW 12 G 16 10.00 Fair CLR 72.9 2.5 74.8 64.2 6% 30.02 0.0
07 17:35 SW 12 G 18 10.00 Fair CLR 73.8 5.7 7% 30.02 0.0
07 17:15 W 13 10.00 Fair CLR 74.1 7.9 8% 30.03 0.0
07 16:55 W 6 10.00 Fair CLR 73.6 6.4 7% 30.04 0.0
07 16:35 W 6 10.00 Fair CLR 74.1 11.3 9% 30.04 0.0
07 16:15 W 6 10.00 Fair CLR 73 12.6 10% 30.04 0.0
07 15:55 N 7 G 12 10.00 Fair CLR 72.7 12.2 10% 30.05 0.0
07 15:35 W 7 10.00 Fair CLR 73.6 12.4 9% 30.06 0.0
07 15:15 NW 6 10.00 Fair CLR 72.7 12.2 10% 30.07 0.0
07 14:15 NW 10 10.00 Fair CLR 71.1 14.5 11% 30.1 0.0
07 13:55 NW 9 10.00 Fair CLR 68.9 14.7 12% 30.11 0.0
07 13:35 N 3 10.00 Fair CLR 68 14.9 13% 30.11 0.0
07 13:15 W 8 10.00 Fair CLR 67.3 13.3 12% 30.13 0.0
07 12:55 N 8 G 17 10.00 Fair CLR 66.9 14.9 13% 30.13 0.0
07 12:35 NW 12 10.00 Fair CLR 65.8 17.6 16% 30.14 0.0
07 12:15 N 6 10.00 Fair CLR 64.6 19 17% 30.15 0.0
07 11:55 NW 5 10.00 Fair CLR 63.1 22.6 63.1 29.3 21% 30.16 0.0
07 11:35 Calm 10.00 Fair CLR 60.4 22.8 24% 30.17 0.0
07 11:15 NW 6 10.00 Fair CLR 59.7 24.8 26% 30.18 0.0
07 10:55 N 9 10.00 Fair CLR 58.5 25.3 28% 30.18 0.0
07 10:35 NE 3 10.00 Fair CLR 55.4 25.2 31% 30.19 0.0
07 10:15 N 6 10.00 Fair CLR 53.4 27.7 37% 30.2 0.0
07 09:55 N 3 10.00 Fair CLR 51.1 33.1 50% 30.21 0.0
07 09:35 N 3 10.00 Fair CLR 46.4 36.3 68% 30.22 0.0
07 09:15 NW 3 10.00 Partly Cloudy SCT004 42.4 37.2 82% 30.22 0.0
07 08:55 Calm 10.00 Mostly Cloudy BKN002 39.7 39.7 100% 30.23 0.0
07 08:35 N 3 3.00 Fog/Mist OVC002 37.9 37.9 100% 30.23 0.0
07 08:15 N 3 0.50 Fog OVC002 37.4 37.4 100% 30.23 0.0
07 07:55 N 5 0.15 Fog OVC002 36.1 36.1 100% 33 30.23 0.0
07 07:35 N 3 0.15 Fog OVC002 34.9 34.9 100% 30.23 0.0
07 07:15 NW 3 0.15 Fog OVC002 33.3 33.3 100% 30.23 0.0
07 06:55 NW 3 0.15 Fog OVC002 32 32 100% 30.23 0.0
07 06:35 NW 3 0.15 Fog OVC002 32.5 32.5 100% 30.23 0.0
07 06:15 Calm 0.15 Freezing Fog OVC002 31.5 31.5 100% 30.23 0.0
07 05:55 N 3 2.50 Fog/Mist OVC002 28.6 28.6 40.6 27.5 100% 30.23 0.0
07 05:35 N 3 10.00 Overcast BKN002 OVC006 27.9 27.9 100% 30.23 0.0
07 05:15 Calm 10.00 Mostly Cloudy SCT002 BKN006 27.9 27.9 100% 30.23 0.0
07 04:55 E 3 10.00 Partly Cloudy SCT006 30.4 30.4 100% 30.23 0.0
07 04:35 E 3 10.00 Overcast OVC006 30.9 30.9 100% 30.23 0.0
07 04:15 Calm 10.00 Overcast OVC006 29.3 29.3 100% 30.23 0.0
07 03:55 Calm 10.00 Overcast OVC006 29.8 29.8 100% 30.24 0.0
07 03:35 Calm 10.00 Mostly Cloudy BKN006 30.4 30.4 100% 30.23 0.0
07 03:15 SW 3 10.00 Fair CLR 35.1 35.1 100% 30.23 0.0
07 02:55 S 8 10.00 Fair CLR 34.7 34.7 100% 29 30.23 0.0
07 02:35 S 9 10.00 Fair CLR 34.2 34.2 100% 27 30.23 0.0
07 02:15 SW 8 10.00 Fair CLR 33.4 33.4 100% 27 30.23 0.0
07 01:55 SW 7 10.00 Fair CLR 33.8 33.4 99% 28 30.23 0.0
07 01:35 SW 8 10.00 Fair CLR 34.3 33.3 96% 28 30.23 0.0
07 01:15 SW 8 10.00 Fair CLR 33.8 32.7 96% 28 30.23 0.0
07 00:55 SW 6 10.00 Fair CLR 34.3 31.5 89% 30 30.22 0.0
07 00:35 SW 5 10.00 Fair CLR 38.7 32.9 80% 36 30.22 0.0
07 00:15 Calm 10.00 Fair CLR 39.4 32.9 78% 30.2 0.0
06 23:55 Calm 10.00 Fair CLR 40.5 32.7 62.2 40.5 74% 30.2 0.0
06 23:35 Calm 10.00 Partly Cloudy SCT090 41 33.6 75% 30.19 0.0
06 23:15 S 9 10.00 Mostly Cloudy BKN090 42.3 32 67% 37 30.18 0.0
06 22:55 SW 6 10.00 Mostly Cloudy BKN100 43.7 31.8 63% 41 30.17 0.0
06 22:35 W 5 10.00 Partly Cloudy SCT100 47.3 30.9 53% 46 30.16 0.0
06 22:15 Calm 10.00 Partly Cloudy SCT090 49.1 30.2 48% 30.16 0.0
06 21:55 Calm 10.00 Partly Cloudy SCT090 49.3 30.9 49% 30.15 0.0
06 21:35 Calm 10.00 Overcast OVC090 48.9 31.8 52% 30.14 0.0
06 21:15 NW 6 10.00 Mostly Cloudy SCT090 BKN120 49.8 31.6 50% 48 30.13 0.0
06 20:55 NW 5 10.00 Mostly Cloudy BKN090 BKN120 53.1 31.1 43% 30.12 0.0
06 20:35 NW 9 10.00 Overcast SCT080 OVC095 54.5 30.4 40% 30.11 0.0
06 20:15 NW 8 10.00 Overcast SCT070 OVC090 54.1 32 43% 30.11 0.0
06 19:55 Calm 10.00 Overcast SCT075 BKN090 OVC120 54.3 32 43% 30.1 0.0
06 19:35 NW 9 10.00 Overcast BKN090 OVC110 54.7 32 42% 30.09 0.0
06 19:15 N 12 G 24 10.00 Mostly Cloudy SCT070 BKN100 54.5 32.4 43% 30.08 0.0
06 18:55 NW 22 G 33 10.00 Mostly Cloudy and Breezy SCT070 BKN080 BKN110 57 30 36% 30.06 0.0
06 18:35 NW 15 G 21 10.00 Partly Cloudy SCT100 58.3 28.9 33% 30.05 0.0
06 18:15 NW 17 G 31 10.00 Fair CLR 61.7 30 30% 30.03 0.0
06 17:55 NW 23 G 30 10.00 Partly Cloudy and Breezy SCT100 61.9 30 67.3 59.7 30% 30.01 0.0
06 17:35 NW 25 G 31 10.00 Mostly Cloudy and Breezy SCT070 BKN100 BKN120 61.3 31.3 32% 30.01 0.0
06 17:15 W 21 G 28 10.00 Overcast and Breezy BKN090 OVC110 62.1 24.4 24% 30 0.0
06 16:55 W 16 G 23 10.00 Mostly Cloudy BKN090 BKN110 62.8 25.5 24% 29.99 0.0
06 16:35 W 20 G 30 10.00 Partly Cloudy SCT080 SCT090 SCT120 64.6 26.2 23% 29.99 0.0
06 16:15 W 14 G 21 10.00 Mostly Cloudy BKN090 BKN110 64.4 26.1 23% 29.98 0.0
06 15:55 W 13 G 22 10.00 Partly Cloudy SCT075 SCT110 66.6 26.2 22% 29.98 0.0
06 15:35 W 13 G 20 10.00 Overcast BKN075 OVC090 64.4 27.9 25% 29.99 0.0
06 15:15 SW 20 G 29 10.00 Partly Cloudy SCT075 SCT100 SCT120 64 27.3 25% 29.99 0.0
06 14:55 W 14 G 23 10.00 Partly Cloudy SCT075 SCT095 64.4 27.3 25% 30 0.0
06 14:35 W 15 G 21 10.00 Mostly Cloudy SCT070 SCT085 BKN095 62.1 26.4 26% 30.01 0.0
06 14:15 SW 16 G 23 10.00 Mostly Cloudy BKN070 BKN095 62.6 27.1 26% 30.01 0.0
06 13:55 W 17 G 24 10.00 Mostly Cloudy BKN070 BKN085 62.6 27.1 26% 30.01 0.0
06 13:35 W 16 G 25 10.00 Mostly Cloudy SCT070 BKN095 61.2 26.6 27% 30.02 0.0
06 13:15 W 17 G 23 10.00 Mostly Cloudy BKN070 BKN085 63.1 27.7 26% 30.02 0.0
06 12:55 W 10 G 25 10.00 Partly Cloudy SCT070 SCT085 63 26.8 25% 30.02 0.0
06 12:35 W 12 G 16 10.00 Partly Cloudy SCT060 62.8 28.9 28% 30.02 0.0
06 12:15 W 13 G 23 10.00 Partly Cloudy SCT060 60.4 28.4 30% 30.04 0.0
06 11:55 W 10 G 20 10.00 Partly Cloudy SCT060 59.5 30 59.5 35.6 33% 30.04 0.0
06 11:35 NW 8 G 18 10.00 Fair CLR 59 29.5 33% 30.04 0.0
06 11:15 W 16 G 22 10.00 Fair CLR 57.6 30.2 35% 30.04 0.0
06 10:55 W 10 G 17 10.00 Partly Cloudy SCT049 56.5 30.6 37% 30.04 0.0
06 10:35 W 14 G 23 10.00 Partly Cloudy SCT049 56.1 31.5 39% 30.04 0.0
06 10:15 W 13 G 23 10.00 Partly Cloudy SCT049 55.2 31.8 41% 30.04 0.0
06 09:55 SW 15 G 21 10.00 Fair CLR 53.6 32.4 45% 30.04 0.0
06 09:35 W 18 G 22 10.00 Fair CLR 52.7 32.5 46% 30.04 0.0
06 09:15 W 17 G 22 10.00 Fair CLR 51.6 32.7 49% 30.04 0.0
06 08:55 W 17 G 22 10.00 Fair CLR 50.5 33.1 51% 30.04 0.0
06 08:35 W 16 G 25 10.00 Fair CLR 49.5 34.2 56% 44 30.04 0.0
06 08:15 W 15 10.00 Fair CLR 48.2 34.5 59% 43 30.04 0.0
06 07:55 W 7 10.00 Fair CLR 46.4 34.9 64% 43 30.04 0.0
06 07:35 W 5 10.00 Fair CLR 45.1 34.7 67% 43 30.04 0.0
06 07:15 SW 8 10.00 Fair CLR 42.6 34.7 74% 38 30.03 0.0
06 06:55 SW 3 10.00 Fair CLR 40.8 33.3 75% 30.03 0.0
06 06:35 NE 3 10.00 Fair CLR 35.8 32.2 87% 30.02 0.0
06 06:15 S 6 10.00 Fair CLR 36.5 32.2 84% 32 30.02 0.0
06 05:55 S 8 10.00 Fair CLR 37.4 32.5 44.1 36 83% 32 30.01 0.0
06 05:35 S 7 10.00 Fair CLR 38.1 32.9 82% 34 30.01 0.0
06 05:15 S 9 10.00 Fair CLR 39 33.4 80% 33 30.01 0.0
06 04:55 S 8 10.00 Fair CLR 38.1 34 85% 33 30 0.0
06 04:35 S 9 10.00 Fair CLR 37.4 36.1 95% 31 30 0.0
06 04:15 S 6 10.00 Fair CLR 37.2 36 95% 33 30 0.0
06 03:55 Calm 10.00 Fair CLR 38.5 37.6 97% 30 0.0
06 03:35 SW 5 10.00 Fair CLR 41.7 35.8 80% 39 29.99 0.0
06 03:15 W 10 10.00 Fair CLR 43.7 36.3 75% 39 29.98 0.0
06 02:55 W 10 10.00 Fair CLR 42.1 37.4 84% 37 29.98 0.0
06 02:35 W 5 10.00 Partly Cloudy SCT110 42.4 37.2 82% 40 29.98 0.0
06 02:15 Calm 10.00 Overcast OVC110 43.2 38.3 83% 29.99 0.0
06 01:55 Calm 10.00 Overcast OVC100 44.1 38.5 81% 29.98 0.0
06 01:35 NE 3 10.00 Mostly Cloudy SCT085 BKN110 42.4 39.7 90% 29.99 0.0
06 01:15 Calm 10.00 Partly Cloudy SCT100 41.2 40.1 96% 29.99 0.0
06 00:55 NE 5 10.00 Partly Cloudy SCT110 43.2 41.4 93% 41 29.99 0.0
06 00:35 N 3 10.00 Overcast SCT085 OVC120 43.3 42.1 95% 30 0.0
05 23:55 N 3 10.00 Mostly Cloudy SCT075 BKN085 BKN110 43.7 43.2 62.6 43 98% 29.99 0.0 0.08 0.08
05 23:35 N 7 10.00 Mostly Cloudy SCT028 SCT050 BKN060 43.2 42.4 97% 40 29.99 0.0 0.08
05 23:15 Calm 4.00 Light Rain SCT020 BKN043 OVC055 44.8 43 93% 30.01 0.0 0.08
05 22:55 N 6 10.00 Light Rain SCT042 BKN050 OVC090 46.4 41.4 83% 44 29.99 0.0
05 22:35 N 7 10.00 Overcast SCT050 BKN075 OVC090 46.4 41.4 83% 43 29.98 0.0
05 22:15 N 10 10.00 Light Rain SCT045 BKN060 OVC070 46.6 41.2 82% 42 29.98 0.0
05 21:55 N 13 10.00 Light Rain SCT046 BKN055 OVC080 47.1 41.4 80% 42 29.97 0.0
05 21:35 NW 14 G 20 10.00 Light Rain BKN050 OVC070 51.6 38.1 60% 29.96 0.0
05 21:15 W 3 10.00 Overcast BKN050 OVC075 52.7 35.4 52% 29.94 0.0
05 20:55 W 7 10.00 Mostly Cloudy BKN075 BKN090 BKN110 51.6 35.6 55% 29.94 0.0
05 20:35 W 9 10.00 Partly Cloudy SCT075 52.7 35.4 52% 29.92 0.0
05 20:15 W 8 10.00 Partly Cloudy SCT085 54 33.8 47% 29.91 0.0
05 19:55 W 7 10.00 Thunderstorm in Vicinity SCT085 SCT110 54.3 32.9 44% 29.9 0.0
05 19:35 W 8 10.00 Fair CLR 55.6 33.1 43% 29.89 0.0
05 19:15 W 14 10.00 Fair CLR 56.7 32.5 40% 29.88 0.0
05 18:55 W 14 G 18 10.00 Fair CLR 59.9 32 35% 29.88 0.0
05 18:35 W 16 G 24 10.00 Fair CLR 61 32 34% 29.87 0.0
05 18:15 W 16 10.00 Fair CLR 61.9 32.2 33% 29.87 0.0
05 17:55 W 15 G 22 10.00 Fair CLR 62.8 32 66.9 58.5 32% 29.87 0.0
05 17:35 W 15 G 22 10.00 Fair CLR 63 33.6 33% 29.87 0.0
05 17:15 W 14 G 23 10.00 Partly Cloudy SCT090 SCT110 62.1 35.6 37% 29.87 0.0
05 16:55 W 21 G 28 10.00 Mostly Cloudy and Breezy SCT080 BKN090 BKN110 62.8 36.1 37% 29.88 0.0
05 16:35 W 22 G 29 10.00 Mostly Cloudy and Breezy BKN090 BKN110 61.5 34.2 36% 29.89 0.0
05 16:15 W 18 G 24 10.00 Partly Cloudy SCT100 SCT120 62.1 34.3 36% 29.88 0.0
05 15:55 W 13 G 21 10.00 Mostly Cloudy SCT021 SCT037 BKN120 64.2 29.1 27% 29.88 0.0
05 15:35 SW 17 G 35 10.00 Mostly Cloudy SCT036 BKN050 BKN070 58.6 30.2 34% 29.9 0.0
05 15:15 W 21 G 28 10.00 Mostly Cloudy and Breezy SCT046 BKN050 62.8 37 39% 29.9 0.0
05 14:55 W 17 G 25 10.00 Mostly Cloudy SCT046 BKN060 65.5 36.7 35% 29.9 0.0
05 14:35 SW 20 G 25 10.00 Overcast SCT048 OVC060 63.9 37.4 38% 29.9 0.0
05 14:15 W 17 G 29 10.00 Mostly Cloudy SCT050 BKN060 BKN080 65.8 36.5 34% 29.9 0.0
05 13:55 W 16 G 23 10.00 Mostly Cloudy BKN048 BKN060 BKN080 63.7 36.9 37% 29.9 0.0
05 13:35 SW 14 G 24 10.00 Mostly Cloudy SCT041 BKN050 BKN060 62.8 36.9 38% 29.9 0.0
05 13:15 SW 14 G 20 10.00 Light Drizzle BKN042 BKN049 OVC070 60.8 39.2 45% 29.9 0.0
05 12:55 SW 12 G 23 10.00 Mostly Cloudy SCT042 BKN048 BKN070 62.4 38.3 41% 29.92 0.0
05 12:35 SW 12 G 18 10.00 Partly Cloudy SCT034 61.7 38.8 43% 29.92 0.0
05 12:15 S 14 G 17 10.00 Mostly Cloudy BKN036 BKN042 59.9 39.2 46% 29.93 0.0
05 11:55 SW 12 G 18 10.00 Mostly Cloudy SCT036 BKN120 60.4 38.5 60.4 52.5 44% 29.94 0.0
05 11:35 S 9 10.00 Partly Cloudy SCT040 SCT120 57.6 36.9 46% 29.94 0.0
05 11:15 SW 6 10.00 Partly Cloudy SCT028 SCT033 SCT043 57 36.9 47% 29.95 0.0
05 10:55 NW 3 10.00 Light Drizzle BKN033 OVC045 54.9 36.9 51% 29.95 0.0
05 10:35 Calm 10.00 Light Rain BKN047 OVC050 55 36.7 50% 29.96 0.0
05 10:15 W 6 10.00 Light Rain OVC050 55.4 37 50% 29.96 0.0
05 09:55 W 7 G 16 10.00 Overcast SCT033 SCT040 OVC050 55.9 36.5 48% 29.97 0.0
05 09:35 W 12 10.00 Overcast SCT031 SCT040 OVC050 55.2 37.4 51% 29.96 0.0
05 09:15 W 13 10.00 Light Drizzle OVC050 53.8 37.9 55% 29.96 0.0
05 08:55 W 14 G 18 10.00 Light Drizzle BKN048 OVC060 53.8 38.3 56% 29.96 0.0
05 08:35 W 17 10.00 Light Rain OVC050 55.8 36.9 49% 29.98 0.0
05 08:15 W 9 10.00 Overcast BKN050 BKN060 OVC100 56.7 32 39% 29.96 0.0
05 07:55 W 7 10.00 Overcast OVC100 56.5 31.8 39% 29.96 0.0
05 07:35 W 7 10.00 Overcast OVC100 55.8 31.8 40% 29.96 0.0
05 07:15 W 10 10.00 Mostly Cloudy BKN110 55.6 32 41% 29.95 0.0
Date Time (mdt) Wind (mph) Vis. (mi.) Weather Sky Cond. Air Dwpt Max. Min. Relative Humidity Wind Chill (°F) Heat Index (°F) altimeter (in) sea level (mb) 1 hr 3 hr 6 hr
6 hour
Temperature (ºF) Pressure Precipitation (in)